sensor_id;sensor_type;location;lat;lon;timestamp;P1;durP1;ratioP1;P2;durP2;ratioP2
70414;SDS011;57837;52.064;113.478;2022-11-14T00:03:04;41.10;;;19.03;;
70414;SDS011;57837;52.064;113.478;2022-11-14T00:06:27;58.83;;;27.80;;
70414;SDS011;57837;52.064;113.478;2022-11-14T00:09:49;206.43;;;63.13;;
70414;SDS011;57837;52.064;113.478;2022-11-14T00:13:12;115.20;;;47.00;;
70414;SDS011;57837;52.064;113.478;2022-11-14T00:16:35;43.13;;;18.83;;
70414;SDS011;57837;52.064;113.478;2022-11-14T00:19:57;61.17;;;25.63;;
70414;SDS011;57837;52.064;113.478;2022-11-14T00:23:20;112.43;;;41.78;;
70414;SDS011;57837;52.064;113.478;2022-11-14T00:26:42;109.70;;;39.90;;
70414;SDS011;57837;52.064;113.478;2022-11-14T00:30:05;87.90;;;32.08;;
70414;SDS011;57837;52.064;113.478;2022-11-14T00:33:27;111.05;;;40.13;;
70414;SDS011;57837;52.064;113.478;2022-11-14T00:36:50;111.10;;;44.90;;
70414;SDS011;57837;52.064;113.478;2022-11-14T00:40:13;75.88;;;29.98;;
70414;SDS011;57837;52.064;113.478;2022-11-14T00:43:35;137.40;;;48.47;;
70414;SDS011;57837;52.064;113.478;2022-11-14T00:46:58;91.63;;;39.27;;
70414;SDS011;57837;52.064;113.478;2022-11-14T00:50:19;83.38;;;32.88;;
70414;SDS011;57837;52.064;113.478;2022-11-14T00:53:40;70.13;;;31.92;;
70414;SDS011;57837;52.064;113.478;2022-11-14T00:57:03;93.13;;;30.45;;
70414;SDS011;57837;52.064;113.478;2022-11-14T01:00:24;65.53;;;30.90;;
70414;SDS011;57837;52.064;113.478;2022-11-14T01:03:47;131.32;;;55.38;;
70414;SDS011;57837;52.064;113.478;2022-11-14T01:07:10;145.90;;;55.30;;
70414;SDS011;57837;52.064;113.478;2022-11-14T01:10:33;167.33;;;67.03;;
70414;SDS011;57837;52.064;113.478;2022-11-14T01:13:54;126.72;;;53.03;;
70414;SDS011;57837;52.064;113.478;2022-11-14T01:17:16;129.52;;;55.13;;
70414;SDS011;57837;52.064;113.478;2022-11-14T01:20:39;179.33;;;69.53;;
70414;SDS011;57837;52.064;113.478;2022-11-14T01:24:01;59.10;;;28.17;;
70414;SDS011;57837;52.064;113.478;2022-11-14T01:27:23;191.65;;;72.65;;
70414;SDS011;57837;52.064;113.478;2022-11-14T01:30:45;110.88;;;44.83;;
70414;SDS011;57837;52.064;113.478;2022-11-14T01:34:08;76.22;;;27.67;;
70414;SDS011;57837;52.064;113.478;2022-11-14T01:37:30;146.55;;;57.88;;
70414;SDS011;57837;52.064;113.478;2022-11-14T01:40:51;108.80;;;43.45;;
70414;SDS011;57837;52.064;113.478;2022-11-14T01:44:14;149.20;;;58.17;;
70414;SDS011;57837;52.064;113.478;2022-11-14T01:47:38;115.60;;;45.40;;
70414;SDS011;57837;52.064;113.478;2022-11-14T01:51:00;181.20;;;67.28;;
70414;SDS011;57837;52.064;113.478;2022-11-14T01:54:32;165.10;;;67.80;;
70414;SDS011;57837;52.064;113.478;2022-11-14T01:57:57;141.10;;;58.13;;
70414;SDS011;57837;52.064;113.478;2022-11-14T02:01:20;120.68;;;49.97;;
70414;SDS011;57837;52.064;113.478;2022-11-14T02:04:49;120.35;;;54.97;;
70414;SDS011;57837;52.064;113.478;2022-11-14T02:08:16;267.98;;;107.15;;
70414;SDS011;57837;52.064;113.478;2022-11-14T02:11:42;237.95;;;93.30;;
70414;SDS011;57837;52.064;113.478;2022-11-14T02:15:06;222.65;;;90.63;;
70414;SDS011;57837;52.064;113.478;2022-11-14T02:18:30;168.93;;;66.90;;
70414;SDS011;57837;52.064;113.478;2022-11-14T02:21:51;130.35;;;51.92;;
70414;SDS011;57837;52.064;113.478;2022-11-14T02:25:14;122.18;;;48.65;;
70414;SDS011;57837;52.064;113.478;2022-11-14T02:28:37;131.77;;;54.37;;
70414;SDS011;57837;52.064;113.478;2022-11-14T02:32:00;160.32;;;61.10;;
70414;SDS011;57837;52.064;113.478;2022-11-14T02:35:29;135.50;;;49.20;;
70414;SDS011;57837;52.064;113.478;2022-11-14T02:38:51;74.50;;;30.52;;
70414;SDS011;57837;52.064;113.478;2022-11-14T02:42:13;86.72;;;31.92;;
70414;SDS011;57837;52.064;113.478;2022-11-14T02:45:36;93.55;;;37.03;;
70414;SDS011;57837;52.064;113.478;2022-11-14T02:48:58;48.95;;;19.13;;
70414;SDS011;57837;52.064;113.478;2022-11-14T02:52:20;62.07;;;21.70;;
70414;SDS011;57837;52.064;113.478;2022-11-14T02:55:42;48.22;;;19.63;;
70414;SDS011;57837;52.064;113.478;2022-11-14T02:59:04;42.70;;;15.30;;
70414;SDS011;57837;52.064;113.478;2022-11-14T03:02:27;37.37;;;14.73;;
70414;SDS011;57837;52.064;113.478;2022-11-14T03:05:49;42.03;;;14.18;;
70414;SDS011;57837;52.064;113.478;2022-11-14T03:09:13;40.95;;;15.85;;
70414;SDS011;57837;52.064;113.478;2022-11-14T03:12:36;61.42;;;23.67;;
70414;SDS011;57837;52.064;113.478;2022-11-14T03:16:03;58.33;;;23.13;;
70414;SDS011;57837;52.064;113.478;2022-11-14T03:19:25;46.42;;;17.13;;
70414;SDS011;57837;52.064;113.478;2022-11-14T03:22:47;60.35;;;22.15;;
70414;SDS011;57837;52.064;113.478;2022-11-14T03:26:09;33.07;;;14.87;;
70414;SDS011;57837;52.064;113.478;2022-11-14T03:29:32;62.53;;;26.00;;
70414;SDS011;57837;52.064;113.478;2022-11-14T03:32:55;75.90;;;29.42;;
70414;SDS011;57837;52.064;113.478;2022-11-14T03:36:17;76.67;;;32.20;;
70414;SDS011;57837;52.064;113.478;2022-11-14T03:39:38;83.68;;;32.42;;
70414;SDS011;57837;52.064;113.478;2022-11-14T03:43:00;78.85;;;32.67;;
70414;SDS011;57837;52.064;113.478;2022-11-14T03:46:22;86.68;;;33.40;;
70414;SDS011;57837;52.064;113.478;2022-11-14T03:49:44;79.40;;;32.05;;
70414;SDS011;57837;52.064;113.478;2022-11-14T03:53:08;73.30;;;29.17;;
70414;SDS011;57837;52.064;113.478;2022-11-14T03:56:31;64.68;;;24.65;;
70414;SDS011;57837;52.064;113.478;2022-11-14T03:59:52;42.80;;;17.90;;
70414;SDS011;57837;52.064;113.478;2022-11-14T04:03:14;48.83;;;21.30;;
70414;SDS011;57837;52.064;113.478;2022-11-14T04:06:36;66.72;;;25.27;;
70414;SDS011;57837;52.064;113.478;2022-11-14T04:09:58;58.37;;;21.13;;
70414;SDS011;57837;52.064;113.478;2022-11-14T04:13:19;40.63;;;17.58;;
70414;SDS011;57837;52.064;113.478;2022-11-14T04:16:40;39.97;;;17.67;;
70414;SDS011;57837;52.064;113.478;2022-11-14T04:20:03;32.25;;;12.70;;
70414;SDS011;57837;52.064;113.478;2022-11-14T04:23:25;47.25;;;18.42;;
70414;SDS011;57837;52.064;113.478;2022-11-14T04:26:46;52.38;;;19.58;;
70414;SDS011;57837;52.064;113.478;2022-11-14T04:30:08;54.83;;;21.00;;
70414;SDS011;57837;52.064;113.478;2022-11-14T04:33:30;68.53;;;23.93;;
70414;SDS011;57837;52.064;113.478;2022-11-14T04:36:51;59.15;;;21.63;;
70414;SDS011;57837;52.064;113.478;2022-11-14T04:40:13;45.47;;;18.55;;
70414;SDS011;57837;52.064;113.478;2022-11-14T04:43:36;46.67;;;18.67;;
70414;SDS011;57837;52.064;113.478;2022-11-14T04:46:58;53.65;;;20.27;;
70414;SDS011;57837;52.064;113.478;2022-11-14T04:50:20;42.03;;;18.13;;
70414;SDS011;57837;52.064;113.478;2022-11-14T04:53:42;49.25;;;16.92;;
70414;SDS011;57837;52.064;113.478;2022-11-14T04:57:04;45.08;;;16.77;;
70414;SDS011;57837;52.064;113.478;2022-11-14T05:00:26;40.88;;;16.48;;
70414;SDS011;57837;52.064;113.478;2022-11-14T05:03:48;43.92;;;19.70;;
70414;SDS011;57837;52.064;113.478;2022-11-14T05:07:10;45.30;;;19.10;;
70414;SDS011;57837;52.064;113.478;2022-11-14T05:10:32;48.10;;;21.10;;
70414;SDS011;57837;52.064;113.478;2022-11-14T05:13:54;32.08;;;14.52;;
70414;SDS011;57837;52.064;113.478;2022-11-14T05:17:16;53.60;;;19.20;;
70414;SDS011;57837;52.064;113.478;2022-11-14T05:20:38;49.65;;;21.10;;
70414;SDS011;57837;52.064;113.478;2022-11-14T05:24:01;44.38;;;17.77;;
70414;SDS011;57837;52.064;113.478;2022-11-14T05:27:22;45.80;;;19.10;;
70414;SDS011;57837;52.064;113.478;2022-11-14T05:30:45;36.75;;;16.77;;
70414;SDS011;57837;52.064;113.478;2022-11-14T05:34:07;44.90;;;17.42;;
70414;SDS011;57837;52.064;113.478;2022-11-14T05:37:28;59.03;;;18.67;;
70414;SDS011;57837;52.064;113.478;2022-11-14T05:40:51;36.90;;;15.37;;
70414;SDS011;57837;52.064;113.478;2022-11-14T05:44:13;39.20;;;17.77;;
70414;SDS011;57837;52.064;113.478;2022-11-14T05:47:35;28.02;;;11.75;;
70414;SDS011;57837;52.064;113.478;2022-11-14T05:50:57;32.33;;;13.10;;
70414;SDS011;57837;52.064;113.478;2022-11-14T05:54:20;43.22;;;14.65;;
70414;SDS011;57837;52.064;113.478;2022-11-14T05:57:42;54.63;;;17.08;;
70414;SDS011;57837;52.064;113.478;2022-11-14T06:01:04;45.25;;;17.38;;
70414;SDS011;57837;52.064;113.478;2022-11-14T06:04:27;62.38;;;19.70;;
70414;SDS011;57837;52.064;113.478;2022-11-14T06:07:56;70.25;;;25.95;;
70414;SDS011;57837;52.064;113.478;2022-11-14T06:11:19;68.80;;;26.73;;
70414;SDS011;57837;52.064;113.478;2022-11-14T06:14:41;61.73;;;23.77;;
70414;SDS011;57837;52.064;113.478;2022-11-14T06:18:04;63.13;;;25.55;;
70414;SDS011;57837;52.064;113.478;2022-11-14T06:21:25;58.97;;;25.40;;
70414;SDS011;57837;52.064;113.478;2022-11-14T06:24:48;66.87;;;26.37;;
70414;SDS011;57837;52.064;113.478;2022-11-14T06:28:09;62.75;;;22.10;;
70414;SDS011;57837;52.064;113.478;2022-11-14T06:31:32;57.50;;;22.00;;
70414;SDS011;57837;52.064;113.478;2022-11-14T06:34:54;59.88;;;23.98;;
70414;SDS011;57837;52.064;113.478;2022-11-14T06:38:16;64.20;;;25.03;;
70414;SDS011;57837;52.064;113.478;2022-11-14T06:41:38;54.05;;;24.67;;
70414;SDS011;57837;52.064;113.478;2022-11-14T06:45:00;67.90;;;25.58;;
70414;SDS011;57837;52.064;113.478;2022-11-14T06:48:22;77.07;;;25.90;;
70414;SDS011;57837;52.064;113.478;2022-11-14T06:51:43;70.20;;;26.02;;
70414;SDS011;57837;52.064;113.478;2022-11-14T06:55:05;62.67;;;25.13;;
70414;SDS011;57837;52.064;113.478;2022-11-14T06:58:29;61.58;;;24.65;;
70414;SDS011;57837;52.064;113.478;2022-11-14T07:01:53;63.87;;;26.30;;
70414;SDS011;57837;52.064;113.478;2022-11-14T07:05:14;68.38;;;25.95;;
70414;SDS011;57837;52.064;113.478;2022-11-14T07:08:35;100.70;;;35.45;;
70414;SDS011;57837;52.064;113.478;2022-11-14T07:11:57;102.45;;;34.00;;
70414;SDS011;57837;52.064;113.478;2022-11-14T07:15:18;102.40;;;35.42;;
70414;SDS011;57837;52.064;113.478;2022-11-14T07:18:40;78.20;;;29.20;;
70414;SDS011;57837;52.064;113.478;2022-11-14T07:22:02;98.38;;;32.10;;
70414;SDS011;57837;52.064;113.478;2022-11-14T07:25:24;97.50;;;42.67;;
70414;SDS011;57837;52.064;113.478;2022-11-14T07:28:45;105.88;;;41.85;;
70414;SDS011;57837;52.064;113.478;2022-11-14T07:32:14;107.90;;;39.85;;
70414;SDS011;57837;52.064;113.478;2022-11-14T07:35:39;103.50;;;36.43;;
70414;SDS011;57837;52.064;113.478;2022-11-14T07:39:01;79.88;;;31.70;;
70414;SDS011;57837;52.064;113.478;2022-11-14T07:42:27;77.28;;;32.03;;
70414;SDS011;57837;52.064;113.478;2022-11-14T07:45:50;77.63;;;30.45;;
70414;SDS011;57837;52.064;113.478;2022-11-14T07:49:12;73.43;;;28.23;;
70414;SDS011;57837;52.064;113.478;2022-11-14T07:52:34;90.88;;;28.67;;
70414;SDS011;57837;52.064;113.478;2022-11-14T07:55:56;71.47;;;27.60;;
70414;SDS011;57837;52.064;113.478;2022-11-14T07:59:22;84.07;;;31.33;;
70414;SDS011;57837;52.064;113.478;2022-11-14T08:02:44;60.88;;;26.00;;
70414;SDS011;57837;52.064;113.478;2022-11-14T08:06:08;86.32;;;32.22;;
70414;SDS011;57837;52.064;113.478;2022-11-14T08:09:31;102.93;;;35.42;;
70414;SDS011;57837;52.064;113.478;2022-11-14T08:13:01;112.03;;;37.23;;
70414;SDS011;57837;52.064;113.478;2022-11-14T08:16:43;89.53;;;32.45;;
70414;SDS011;57837;52.064;113.478;2022-11-14T08:20:07;90.55;;;34.95;;
70414;SDS011;57837;52.064;113.478;2022-11-14T08:23:28;52.80;;;20.67;;
70414;SDS011;57837;52.064;113.478;2022-11-14T08:26:51;47.43;;;20.17;;
70414;SDS011;57837;52.064;113.478;2022-11-14T08:30:13;82.75;;;33.00;;
70414;SDS011;57837;52.064;113.478;2022-11-14T08:33:35;96.88;;;33.90;;
70414;SDS011;57837;52.064;113.478;2022-11-14T08:37:00;209.40;;;73.97;;
70414;SDS011;57837;52.064;113.478;2022-11-14T08:40:20;214.68;;;69.97;;
70414;SDS011;57837;52.064;113.478;2022-11-14T08:43:43;212.88;;;77.38;;
70414;SDS011;57837;52.064;113.478;2022-11-14T08:47:05;175.02;;;65.60;;
70414;SDS011;57837;52.064;113.478;2022-11-14T08:50:27;222.17;;;80.57;;
70414;SDS011;57837;52.064;113.478;2022-11-14T08:53:49;217.85;;;78.05;;
70414;SDS011;57837;52.064;113.478;2022-11-14T08:57:12;195.63;;;72.18;;
70414;SDS011;57837;52.064;113.478;2022-11-14T09:00:35;228.37;;;78.87;;
70414;SDS011;57837;52.064;113.478;2022-11-14T09:03:58;280.45;;;94.32;;
70414;SDS011;57837;52.064;113.478;2022-11-14T09:07:21;273.23;;;93.00;;
70414;SDS011;57837;52.064;113.478;2022-11-14T09:10:43;248.63;;;89.13;;
70414;SDS011;57837;52.064;113.478;2022-11-14T09:14:06;253.65;;;85.70;;
70414;SDS011;57837;52.064;113.478;2022-11-14T09:17:28;263.15;;;87.47;;
70414;SDS011;57837;52.064;113.478;2022-11-14T09:20:50;255.55;;;84.25;;
70414;SDS011;57837;52.064;113.478;2022-11-14T09:24:12;194.20;;;71.03;;
70414;SDS011;57837;52.064;113.478;2022-11-14T09:27:35;287.45;;;112.55;;
70414;SDS011;57837;52.064;113.478;2022-11-14T09:31:04;282.95;;;112.78;;
70414;SDS011;57837;52.064;113.478;2022-11-14T09:34:31;305.73;;;117.00;;
70414;SDS011;57837;52.064;113.478;2022-11-14T09:38:00;288.25;;;103.70;;
70414;SDS011;57837;52.064;113.478;2022-11-14T09:41:33;307.85;;;117.13;;
70414;SDS011;57837;52.064;113.478;2022-11-14T09:45:01;296.85;;;111.03;;
70414;SDS011;57837;52.064;113.478;2022-11-14T09:48:25;300.73;;;111.13;;
70414;SDS011;57837;52.064;113.478;2022-11-14T09:51:52;385.88;;;142.25;;
70414;SDS011;57837;52.064;113.478;2022-11-14T09:55:19;312.75;;;119.65;;
70414;SDS011;57837;52.064;113.478;2022-11-14T09:58:43;212.73;;;82.63;;
70414;SDS011;57837;52.064;113.478;2022-11-14T10:21:05;205.32;;;89.03;;
70414;SDS011;57837;52.064;113.478;2022-11-14T10:24:50;219.02;;;88.95;;
70414;SDS011;57837;52.064;113.478;2022-11-14T10:28:19;208.55;;;86.18;;
70414;SDS011;57837;52.064;113.478;2022-11-14T10:32:25;221.25;;;89.97;;
70414;SDS011;57837;52.064;113.478;2022-11-14T10:43:06;220.40;;;90.13;;
70414;SDS011;57837;52.064;113.478;2022-11-14T10:46:43;221.73;;;89.17;;
70414;SDS011;57837;52.064;113.478;2022-11-14T10:50:51;140.98;;;58.88;;
70414;SDS011;57837;52.064;113.478;2022-11-14T10:57:28;96.45;;;40.28;;
70414;SDS011;57837;52.064;113.478;2022-11-14T11:00:50;154.73;;;63.53;;
70414;SDS011;57837;52.064;113.478;2022-11-14T11:07:35;128.32;;;52.10;;
70414;SDS011;57837;52.064;113.478;2022-11-14T11:11:50;98.17;;;38.67;;
70414;SDS011;57837;52.064;113.478;2022-11-14T11:15:29;113.63;;;41.22;;
70414;SDS011;57837;52.064;113.478;2022-11-14T11:18:52;112.82;;;43.67;;
70414;SDS011;57837;52.064;113.478;2022-11-14T11:22:35;122.35;;;52.15;;
70414;SDS011;57837;52.064;113.478;2022-11-14T11:26:00;136.73;;;52.13;;
70414;SDS011;57837;52.064;113.478;2022-11-14T11:29:29;183.73;;;68.47;;
70414;SDS011;57837;52.064;113.478;2022-11-14T11:32:51;179.82;;;68.45;;
70414;SDS011;57837;52.064;113.478;2022-11-14T11:36:14;181.90;;;66.17;;
70414;SDS011;57837;52.064;113.478;2022-11-14T11:39:44;149.07;;;59.28;;
70414;SDS011;57837;52.064;113.478;2022-11-14T11:43:29;140.98;;;54.72;;
70414;SDS011;57837;52.064;113.478;2022-11-14T11:47:00;125.40;;;50.37;;
70414;SDS011;57837;52.064;113.478;2022-11-14T11:50:25;126.93;;;43.20;;
70414;SDS011;57837;52.064;113.478;2022-11-14T11:57:55;130.30;;;53.75;;
70414;SDS011;57837;52.064;113.478;2022-11-14T12:01:22;183.55;;;70.72;;
70414;SDS011;57837;52.064;113.478;2022-11-14T12:04:45;276.20;;;108.95;;
70414;SDS011;57837;52.064;113.478;2022-11-14T12:12:02;282.17;;;111.83;;
70414;SDS011;57837;52.064;113.478;2022-11-14T12:30:45;196.27;;;72.20;;
70414;SDS011;57837;52.064;113.478;2022-11-14T12:34:14;189.48;;;70.47;;
70414;SDS011;57837;52.064;113.478;2022-11-14T12:37:44;189.45;;;71.15;;
70414;SDS011;57837;52.064;113.478;2022-11-14T12:41:23;201.02;;;75.90;;
70414;SDS011;57837;52.064;113.478;2022-11-14T12:44:56;295.25;;;114.78;;
70414;SDS011;57837;52.064;113.478;2022-11-14T12:51:48;309.80;;;114.68;;
70414;SDS011;57837;52.064;113.478;2022-11-14T13:13:32;438.67;;;179.75;;
70414;SDS011;57837;52.064;113.478;2022-11-14T13:17:37;479.05;;;204.02;;
70414;SDS011;57837;52.064;113.478;2022-11-14T13:21:24;452.05;;;181.73;;
70414;SDS011;57837;52.064;113.478;2022-11-14T13:28:46;464.90;;;172.75;;
70414;SDS011;57837;52.064;113.478;2022-11-14T13:32:08;486.38;;;190.77;;
70414;SDS011;57837;52.064;113.478;2022-11-14T13:35:43;438.17;;;171.03;;
70414;SDS011;57837;52.064;113.478;2022-11-14T13:53:32;388.90;;;157.95;;
70414;SDS011;57837;52.064;113.478;2022-11-14T14:00:29;596.43;;;232.50;;
70414;SDS011;57837;52.064;113.478;2022-11-14T14:04:25;618.78;;;251.02;;
70414;SDS011;57837;52.064;113.478;2022-11-14T14:15:43;408.60;;;162.45;;
70414;SDS011;57837;52.064;113.478;2022-11-14T14:33:37;535.47;;;211.65;;
70414;SDS011;57837;52.064;113.478;2022-11-14T14:37:12;485.40;;;180.33;;
70414;SDS011;57837;52.064;113.478;2022-11-14T14:40:39;466.42;;;176.98;;
70414;SDS011;57837;52.064;113.478;2022-11-14T14:44:03;604.05;;;250.10;;
70414;SDS011;57837;52.064;113.478;2022-11-14T14:47:35;495.87;;;194.57;;
70414;SDS011;57837;52.064;113.478;2022-11-14T14:51:00;584.55;;;236.35;;
70414;SDS011;57837;52.064;113.478;2022-11-14T14:54:28;621.78;;;249.18;;
70414;SDS011;57837;52.064;113.478;2022-11-14T14:57:51;573.25;;;233.13;;
70414;SDS011;57837;52.064;113.478;2022-11-14T15:01:15;612.75;;;252.30;;
70414;SDS011;57837;52.064;113.478;2022-11-14T15:04:38;559.22;;;222.05;;
70414;SDS011;57837;52.064;113.478;2022-11-14T15:08:01;564.78;;;228.48;;
70414;SDS011;57837;52.064;113.478;2022-11-14T15:11:24;508.37;;;203.03;;
70414;SDS011;57837;52.064;113.478;2022-11-14T15:14:52;386.13;;;155.68;;
70414;SDS011;57837;52.064;113.478;2022-11-14T15:18:19;514.20;;;204.32;;
70414;SDS011;57837;52.064;113.478;2022-11-14T15:21:45;432.80;;;167.47;;
70414;SDS011;57837;52.064;113.478;2022-11-14T15:25:40;458.02;;;169.45;;
70414;SDS011;57837;52.064;113.478;2022-11-14T15:29:06;411.52;;;153.73;;
70414;SDS011;57837;52.064;113.478;2022-11-14T15:32:49;491.50;;;188.38;;
70414;SDS011;57837;52.064;113.478;2022-11-14T15:36:13;346.05;;;133.95;;
70414;SDS011;57837;52.064;113.478;2022-11-14T15:39:38;463.83;;;173.77;;
70414;SDS011;57837;52.064;113.478;2022-11-14T15:43:34;408.98;;;153.13;;
70414;SDS011;57837;52.064;113.478;2022-11-14T15:47:00;446.17;;;176.73;;
70414;SDS011;57837;52.064;113.478;2022-11-14T15:50:25;448.55;;;178.88;;
70414;SDS011;57837;52.064;113.478;2022-11-14T15:53:50;425.70;;;164.07;;
70414;SDS011;57837;52.064;113.478;2022-11-14T15:57:14;355.30;;;134.90;;
70414;SDS011;57837;52.064;113.478;2022-11-14T16:00:40;418.00;;;153.63;;
70414;SDS011;57837;52.064;113.478;2022-11-14T16:04:14;354.13;;;125.50;;
70414;SDS011;57837;52.064;113.478;2022-11-14T16:07:38;291.58;;;109.45;;
70414;SDS011;57837;52.064;113.478;2022-11-14T16:11:00;365.60;;;134.98;;
70414;SDS011;57837;52.064;113.478;2022-11-14T16:14:22;332.38;;;121.35;;
70414;SDS011;57837;52.064;113.478;2022-11-14T16:17:44;299.45;;;118.95;;
70414;SDS011;57837;52.064;113.478;2022-11-14T16:21:10;226.03;;;94.33;;
70414;SDS011;57837;52.064;113.478;2022-11-14T16:24:36;324.27;;;118.72;;
70414;SDS011;57837;52.064;113.478;2022-11-14T16:27:58;265.17;;;97.55;;
70414;SDS011;57837;52.064;113.478;2022-11-14T16:31:20;376.17;;;131.00;;
70414;SDS011;57837;52.064;113.478;2022-11-14T16:34:42;334.40;;;124.22;;
70414;SDS011;57837;52.064;113.478;2022-11-14T16:38:04;215.90;;;89.38;;
70414;SDS011;57837;52.064;113.478;2022-11-14T16:41:27;286.73;;;97.15;;
70414;SDS011;57837;52.064;113.478;2022-11-14T16:44:48;214.45;;;84.47;;
70414;SDS011;57837;52.064;113.478;2022-11-14T16:48:10;366.45;;;132.88;;
70414;SDS011;57837;52.064;113.478;2022-11-14T16:51:32;392.80;;;142.60;;
70414;SDS011;57837;52.064;113.478;2022-11-14T16:55:10;366.60;;;135.90;;
70414;SDS011;57837;52.064;113.478;2022-11-14T16:58:32;335.65;;;123.97;;
70414;SDS011;57837;52.064;113.478;2022-11-14T17:01:55;363.48;;;129.27;;
70414;SDS011;57837;52.064;113.478;2022-11-14T17:05:17;333.10;;;124.00;;
70414;SDS011;57837;52.064;113.478;2022-11-14T17:08:39;346.63;;;127.28;;
70414;SDS011;57837;52.064;113.478;2022-11-14T17:12:00;316.15;;;116.75;;
70414;SDS011;57837;52.064;113.478;2022-11-14T17:15:21;173.75;;;55.15;;
70414;SDS011;57837;52.064;113.478;2022-11-14T17:18:42;140.88;;;49.10;;
70414;SDS011;57837;52.064;113.478;2022-11-14T17:22:04;128.75;;;42.83;;
70414;SDS011;57837;52.064;113.478;2022-11-14T17:25:25;74.78;;;26.85;;
70414;SDS011;57837;52.064;113.478;2022-11-14T17:28:47;202.83;;;69.57;;
70414;SDS011;57837;52.064;113.478;2022-11-14T17:32:09;313.38;;;104.10;;
70414;SDS011;57837;52.064;113.478;2022-11-14T17:35:33;401.83;;;144.07;;
70414;SDS011;57837;52.064;113.478;2022-11-14T17:38:56;439.23;;;155.00;;
70414;SDS011;57837;52.064;113.478;2022-11-14T17:42:19;434.45;;;157.35;;
70414;SDS011;57837;52.064;113.478;2022-11-14T17:45:41;462.80;;;174.73;;
70414;SDS011;57837;52.064;113.478;2022-11-14T17:49:02;443.20;;;166.50;;
70414;SDS011;57837;52.064;113.478;2022-11-14T17:52:24;502.75;;;190.43;;
70414;SDS011;57837;52.064;113.478;2022-11-14T17:55:52;452.08;;;168.52;;
70414;SDS011;57837;52.064;113.478;2022-11-14T17:59:17;539.47;;;208.32;;
70414;SDS011;57837;52.064;113.478;2022-11-14T18:02:40;396.73;;;142.20;;
70414;SDS011;57837;52.064;113.478;2022-11-14T18:06:05;396.38;;;144.98;;
70414;SDS011;57837;52.064;113.478;2022-11-14T18:09:28;398.92;;;140.75;;
70414;SDS011;57837;52.064;113.478;2022-11-14T18:12:51;164.67;;;62.43;;
70414;SDS011;57837;52.064;113.478;2022-11-14T18:16:14;218.95;;;82.75;;
70414;SDS011;57837;52.064;113.478;2022-11-14T18:19:39;266.02;;;92.15;;
70414;SDS011;57837;52.064;113.478;2022-11-14T18:23:00;152.57;;;62.70;;
70414;SDS011;57837;52.064;113.478;2022-11-14T18:26:23;218.02;;;80.55;;
70414;SDS011;57837;52.064;113.478;2022-11-14T18:29:49;235.93;;;86.90;;
70414;SDS011;57837;52.064;113.478;2022-11-14T18:33:12;247.90;;;90.97;;
70414;SDS011;57837;52.064;113.478;2022-11-14T18:36:35;262.00;;;96.30;;
70414;SDS011;57837;52.064;113.478;2022-11-14T18:39:56;356.98;;;119.97;;
70414;SDS011;57837;52.064;113.478;2022-11-14T18:43:18;326.00;;;116.53;;
70414;SDS011;57837;52.064;113.478;2022-11-14T18:46:40;186.07;;;67.53;;
70414;SDS011;57837;52.064;113.478;2022-11-14T18:50:02;268.45;;;94.10;;
70414;SDS011;57837;52.064;113.478;2022-11-14T18:53:28;291.13;;;102.72;;
70414;SDS011;57837;52.064;113.478;2022-11-14T18:56:51;287.20;;;100.95;;
70414;SDS011;57837;52.064;113.478;2022-11-14T19:00:13;313.42;;;111.82;;
70414;SDS011;57837;52.064;113.478;2022-11-14T19:03:35;310.48;;;113.43;;
70414;SDS011;57837;52.064;113.478;2022-11-14T19:06:57;306.98;;;104.53;;
70414;SDS011;57837;52.064;113.478;2022-11-14T19:10:19;294.97;;;100.50;;
70414;SDS011;57837;52.064;113.478;2022-11-14T19:13:41;193.05;;;70.93;;
70414;SDS011;57837;52.064;113.478;2022-11-14T19:17:03;199.95;;;73.85;;
70414;SDS011;57837;52.064;113.478;2022-11-14T19:20:27;291.83;;;99.77;;
70414;SDS011;57837;52.064;113.478;2022-11-14T19:23:49;272.05;;;96.22;;
70414;SDS011;57837;52.064;113.478;2022-11-14T19:27:12;284.88;;;101.32;;
70414;SDS011;57837;52.064;113.478;2022-11-14T19:30:35;261.67;;;97.90;;
70414;SDS011;57837;52.064;113.478;2022-11-14T19:33:58;276.77;;;87.85;;
70414;SDS011;57837;52.064;113.478;2022-11-14T19:37:20;284.40;;;94.70;;
70414;SDS011;57837;52.064;113.478;2022-11-14T19:40:42;245.95;;;84.93;;
70414;SDS011;57837;52.064;113.478;2022-11-14T19:44:11;246.50;;;87.87;;
70414;SDS011;57837;52.064;113.478;2022-11-14T19:47:33;280.48;;;94.20;;
70414;SDS011;57837;52.064;113.478;2022-11-14T19:54:20;216.07;;;77.50;;
70414;SDS011;57837;52.064;113.478;2022-11-14T19:57:42;169.10;;;52.15;;
70414;SDS011;57837;52.064;113.478;2022-11-14T20:01:09;216.50;;;78.05;;
70414;SDS011;57837;52.064;113.478;2022-11-14T20:04:36;212.60;;;74.18;;
70414;SDS011;57837;52.064;113.478;2022-11-14T20:07:59;205.82;;;68.22;;
70414;SDS011;57837;52.064;113.478;2022-11-14T20:11:21;125.70;;;43.17;;
70414;SDS011;57837;52.064;113.478;2022-11-14T20:14:43;72.95;;;26.38;;
70414;SDS011;57837;52.064;113.478;2022-11-14T20:18:06;97.07;;;32.80;;
70414;SDS011;57837;52.064;113.478;2022-11-14T20:21:29;75.40;;;24.85;;
70414;SDS011;57837;52.064;113.478;2022-11-14T20:24:53;57.92;;;19.30;;
70414;SDS011;57837;52.064;113.478;2022-11-14T20:28:15;62.43;;;20.00;;
70414;SDS011;57837;52.064;113.478;2022-11-14T20:31:37;39.95;;;16.08;;
70414;SDS011;57837;52.064;113.478;2022-11-14T20:35:00;45.60;;;17.70;;
70414;SDS011;57837;52.064;113.478;2022-11-14T20:38:22;44.22;;;13.82;;
70414;SDS011;57837;52.064;113.478;2022-11-14T20:41:44;36.72;;;12.65;;
70414;SDS011;57837;52.064;113.478;2022-11-14T20:45:06;40.08;;;13.27;;
70414;SDS011;57837;52.064;113.478;2022-11-14T20:48:29;49.35;;;17.70;;
70414;SDS011;57837;52.064;113.478;2022-11-14T20:51:54;75.03;;;25.83;;
70414;SDS011;57837;52.064;113.478;2022-11-14T20:55:16;144.57;;;49.83;;
70414;SDS011;57837;52.064;113.478;2022-11-14T20:58:39;191.05;;;64.90;;
70414;SDS011;57837;52.064;113.478;2022-11-14T21:02:02;187.37;;;60.50;;
70414;SDS011;57837;52.064;113.478;2022-11-14T21:05:25;223.55;;;71.25;;
70414;SDS011;57837;52.064;113.478;2022-11-14T21:08:47;163.32;;;56.35;;
70414;SDS011;57837;52.064;113.478;2022-11-14T21:12:10;200.77;;;67.78;;
70414;SDS011;57837;52.064;113.478;2022-11-14T21:15:32;208.27;;;61.33;;